Terminal Aerodrome Forecast
Issued by NWS

Home | Current Version | Previous Version | Text Only | Print | Product List | Glossary On
Versions: 1 2 3 4 5 6 7 8 9 10 11 12 13 14
000
FTUS46 KSGX 051135
TAFONT
TAF
KONT 051135Z 0512/0618 VRB06KT P6SM OVC018
     FM051800 25012G20KT P6SM SCT025 BKN040
     FM060400 25008KT P6SM VCSH SCT025 BKN035
     FM060800 VRB05KT P6SM VCSH BKN020 OVC035
     FM061600 VRB05KT P6SM FEW020 OVC040=

USA.gov is the U.S. government's official web portal to all federal, state and local government web resources and services.